createdAt,value
2018-11-03T00:01:35.398Z,7.50
2018-11-03T00:04:04.838Z,6.80
2018-11-03T00:06:34.221Z,7.40
2018-11-03T00:09:03.197Z,6.27
2018-11-03T00:11:32.466Z,6.80
2018-11-03T00:14:01.370Z,6.70
2018-11-03T00:16:30.270Z,6.10
2018-11-03T00:19:02.394Z,5.97
2018-11-03T00:21:34.175Z,7.27
2018-11-03T00:24:13.611Z,6.50
2018-11-03T00:26:44.213Z,6.57
2018-11-03T00:29:17.370Z,6.83
2018-11-03T00:31:49.909Z,7.23
2018-11-03T00:34:21.189Z,7.90
2018-11-03T00:36:56.934Z,8.00
2018-11-03T00:42:24.925Z,7.90
2018-11-03T00:47:46.035Z,7.90
2018-11-03T00:50:16.357Z,8.33
2018-11-03T00:56:09.895Z,9.27
2018-11-03T00:58:42.905Z,8.90
2018-11-03T01:07:18.362Z,8.97
2018-11-03T01:09:47.169Z,8.83
2018-11-03T01:12:15.891Z,9.70
2018-11-03T01:14:44.299Z,9.40
2018-11-03T01:17:13.492Z,9.90
2018-11-03T01:19:42.730Z,10.33
2018-11-03T01:22:11.380Z,9.73
2018-11-03T01:24:39.963Z,9.77
2018-11-03T01:27:12.741Z,10.30
2018-11-03T01:29:42.177Z,9.40
2018-11-03T01:32:10.986Z,10.37
2018-11-03T01:34:41.253Z,10.20
2018-11-03T01:37:11.049Z,9.77
2018-11-03T01:39:43.347Z,11.97
2018-11-03T01:42:12.069Z,10.33
2018-11-03T01:44:45.380Z,11.60
2018-11-03T01:47:21.372Z,12.60
2018-11-03T01:49:50.632Z,12.77
2018-11-03T01:52:20.393Z,12.87
2018-11-03T01:54:48.874Z,12.13
2018-11-03T01:57:19.554Z,12.13
2018-11-03T01:59:51.183Z,11.57
2018-11-03T02:02:23.081Z,12.83
2018-11-03T02:04:51.505Z,13.43
2018-11-03T02:07:21.241Z,13.07
2018-11-03T02:09:49.746Z,12.87
2018-11-03T02:12:18.172Z,12.30
2018-11-03T02:14:48.793Z,13.63
2018-11-03T02:17:17.796Z,13.10
2018-11-03T02:19:46.552Z,14.03
2018-11-03T02:22:16.967Z,13.73
2018-11-03T02:24:46.083Z,13.83
2018-11-03T02:27:17.421Z,13.00
2018-11-03T02:29:49.918Z,13.30
2018-11-03T02:32:19.872Z,14.50
2018-11-03T02:34:51.365Z,13.90
2018-11-03T02:37:20.197Z,13.93
2018-11-03T02:39:49.120Z,14.67
2018-11-03T02:42:17.907Z,13.37
2018-11-03T02:44:46.693Z,14.27
2018-11-03T02:47:15.183Z,13.67
2018-11-03T02:49:43.974Z,13.47
2018-11-03T02:52:12.860Z,13.30
2018-11-03T02:54:42.780Z,13.67
2018-11-03T02:57:12.170Z,13.80
2018-11-03T02:59:41.012Z,13.67
2018-11-03T03:02:11.221Z,14.00
2018-11-03T03:04:40.284Z,12.97
2018-11-03T03:07:09.240Z,13.27
2018-11-03T03:09:38.057Z,13.50
2018-11-03T03:12:06.890Z,15.57
2018-11-03T03:14:35.636Z,14.97
2018-11-03T03:17:04.895Z,14.77
2018-11-03T03:19:33.773Z,16.10
2018-11-03T03:22:02.624Z,15.80
2018-11-03T03:24:31.399Z,15.10
2018-11-03T03:27:00.309Z,16.00
2018-11-03T03:29:29.024Z,15.20
2018-11-03T03:31:57.988Z,15.30
2018-11-03T03:34:27.004Z,14.80
2018-11-03T03:36:55.901Z,15.37
2018-11-03T03:39:24.869Z,15.27
2018-11-03T03:41:53.545Z,15.60
2018-11-03T03:44:23.323Z,15.53
2018-11-03T03:46:52.352Z,15.40
2018-11-03T03:49:21.651Z,15.37
2018-11-03T03:51:51.773Z,15.80
2018-11-03T03:54:20.705Z,15.97
2018-11-03T03:56:49.711Z,17.33
2018-11-03T03:59:19.351Z,16.67
2018-11-03T04:01:48.205Z,16.33
2018-11-03T04:04:17.485Z,16.93
2018-11-03T04:06:46.499Z,16.97
2018-11-03T04:09:15.449Z,17.20
2018-11-03T04:11:44.417Z,17.13
2018-11-03T04:14:13.731Z,16.93
2018-11-03T04:16:43.560Z,18.40
2018-11-03T04:19:12.798Z,19.83
2018-11-03T04:21:42.650Z,17.90
2018-11-03T04:24:11.268Z,19.13
2018-11-03T04:26:40.040Z,18.97
2018-11-03T04:29:09.647Z,18.87
2018-11-03T04:31:38.585Z,18.93
2018-11-03T04:34:07.203Z,19.13
2018-11-03T04:36:35.975Z,18.67
2018-11-03T04:39:05.174Z,18.37
2018-11-03T04:41:33.774Z,18.83
2018-11-03T04:44:03.989Z,19.23
2018-11-03T04:46:32.878Z,20.73
2018-11-03T04:49:02.983Z,21.67
2018-11-03T04:51:33.339Z,22.13
2018-11-03T04:54:02.163Z,21.90
2018-11-03T04:56:31.699Z,18.97
2018-11-03T04:59:00.739Z,20.90
2018-11-03T05:01:29.369Z,21.10
2018-11-03T05:03:58.679Z,20.93
2018-11-03T05:06:28.682Z,21.57
2018-11-03T05:08:57.840Z,20.63
2018-11-03T05:11:29.353Z,20.60
2018-11-03T05:13:58.148Z,20.97
2018-11-03T05:16:26.928Z,21.57
2018-11-03T05:18:55.749Z,21.83
2018-11-03T05:21:24.682Z,21.67
2018-11-03T05:23:53.363Z,21.70
2018-11-03T05:26:22.243Z,21.97
2018-11-03T05:28:51.959Z,20.73
2018-11-03T05:31:20.735Z,20.97
2018-11-03T05:33:49.475Z,20.50
2018-11-03T05:36:18.574Z,21.40
2018-11-03T05:38:48.159Z,21.50
2018-11-03T05:41:17.173Z,22.73
2018-11-03T05:43:46.058Z,21.73
2018-11-03T05:46:15.809Z,21.00
2018-11-03T05:48:44.691Z,22.17
2018-11-03T05:51:13.398Z,22.87
2018-11-03T05:53:42.410Z,22.10
2018-11-03T05:56:11.542Z,21.70
2018-11-03T05:58:40.477Z,20.50
2018-11-03T06:01:09.479Z,21.70
2018-11-03T06:03:38.245Z,21.53
2018-11-03T06:06:07.586Z,22.13
2018-11-03T06:08:36.687Z,21.70
2018-11-03T06:11:06.783Z,21.87
2018-11-03T06:13:40.809Z,21.70
2018-11-03T06:16:11.125Z,20.80
2018-11-03T06:18:50.305Z,21.17
2018-11-03T06:21:19.388Z,21.83
2018-11-03T06:23:48.980Z,21.03
2018-11-03T06:26:18.046Z,20.07
2018-11-03T06:28:47.544Z,20.70
2018-11-03T06:31:17.270Z,20.90
2018-11-03T06:33:46.761Z,20.43
2018-11-03T06:39:12.467Z,20.33
2018-11-03T06:41:41.338Z,21.23
2018-11-03T06:44:11.460Z,19.63
2018-11-03T06:46:40.430Z,19.93
2018-11-03T06:49:15.631Z,19.87
2018-11-03T06:51:44.789Z,19.27
2018-11-03T06:54:14.357Z,18.97
2018-11-03T06:56:43.924Z,19.87
2018-11-03T06:59:15.414Z,19.43
2018-11-03T07:01:45.126Z,20.03
2018-11-03T07:04:13.586Z,19.17
2018-11-03T07:06:42.684Z,20.33
2018-11-03T07:09:13.035Z,20.70
2018-11-03T07:11:42.300Z,21.13
2018-11-03T07:14:10.875Z,18.93
2018-11-03T07:16:39.498Z,19.47
2018-11-03T07:19:07.848Z,19.27
2018-11-03T07:21:35.959Z,18.43
2018-11-03T07:24:04.781Z,17.67
2018-11-03T07:26:33.956Z,18.40
2018-11-03T07:29:02.723Z,16.43
2018-11-03T07:31:31.089Z,17.33
2018-11-03T07:33:59.662Z,18.13
2018-11-03T07:36:28.191Z,18.57
2018-11-03T07:38:57.349Z,16.60
2018-11-03T07:41:26.022Z,16.20
2018-11-03T07:43:54.996Z,17.43
2018-11-03T07:46:24.039Z,16.13
2018-11-03T07:48:52.720Z,16.93
2018-11-03T07:51:21.170Z,16.77
2018-11-03T07:53:50.178Z,17.80
2018-11-03T07:56:19.022Z,16.40
2018-11-03T07:58:47.664Z,15.70
2018-11-03T08:01:20.683Z,16.33
2018-11-03T08:03:49.474Z,16.70
2018-11-03T08:06:17.964Z,17.43
2018-11-03T08:08:46.757Z,17.37
2018-11-03T08:11:16.674Z,17.83
2018-11-03T08:13:56.684Z,18.43
2018-11-03T08:16:25.275Z,17.97
2018-11-03T08:18:53.623Z,18.10
2018-11-03T08:21:22.053Z,17.80
2018-11-03T08:23:50.510Z,18.43
2018-11-03T08:26:19.033Z,17.53
2018-11-03T08:28:47.341Z,18.30
2018-11-03T08:31:16.526Z,17.17
2018-11-03T08:33:45.704Z,16.87
2018-11-03T08:36:15.191Z,17.13
2018-11-03T08:41:25.345Z,16.37
2018-11-03T08:43:53.671Z,16.70
2018-11-03T08:46:22.222Z,15.47
2018-11-03T08:48:50.692Z,15.60
2018-11-03T08:51:18.827Z,15.17
2018-11-03T08:53:47.001Z,14.83
2018-11-03T08:56:15.154Z,15.30
2018-11-03T08:58:58.037Z,14.60
2018-11-03T09:01:26.277Z,14.33
2018-11-03T09:03:55.815Z,14.53
2018-11-03T09:06:37.241Z,14.20
2018-11-03T09:09:10.148Z,14.00
2018-11-03T09:23:16.256Z,13.93
2018-11-03T09:25:44.408Z,13.80
2018-11-03T09:28:12.727Z,13.10
2018-11-03T09:30:40.871Z,13.70
2018-11-03T09:33:09.751Z,14.13
2018-11-03T09:35:38.801Z,13.33
2018-11-03T09:38:07.980Z,13.17
2018-11-03T09:40:36.233Z,12.90
2018-11-03T09:43:05.659Z,12.80
2018-11-03T09:48:21.560Z,11.50
2018-11-03T09:50:49.806Z,12.00
2018-11-03T09:53:17.810Z,11.03
2018-11-03T09:55:46.031Z,12.07
2018-11-03T09:58:14.173Z,11.03
2018-11-03T10:00:43.144Z,11.53
2018-11-03T10:03:11.747Z,12.10
2018-11-03T10:05:39.862Z,12.73
2018-11-03T10:08:08.050Z,12.53
2018-11-03T10:10:36.184Z,12.97
2018-11-03T10:13:04.374Z,13.07
2018-11-03T10:15:32.531Z,12.87
2018-11-03T10:18:00.693Z,11.57
2018-11-03T10:20:29.972Z,11.83
2018-11-03T10:22:58.172Z,12.97
2018-11-03T10:25:26.274Z,12.10
2018-11-03T10:27:54.343Z,12.17
2018-11-03T10:30:22.525Z,11.07
2018-11-03T10:32:50.694Z,11.40
2018-11-03T10:35:28.273Z,11.60
2018-11-03T10:37:57.361Z,11.07
2018-11-03T10:40:25.506Z,10.53
2018-11-03T10:42:53.661Z,10.50
2018-11-03T10:45:21.927Z,10.40
2018-11-03T10:47:50.802Z,9.67
2018-11-03T10:50:23.757Z,9.80
2018-11-03T10:52:53.066Z,10.17
2018-11-03T10:55:21.905Z,10.50
2018-11-03T10:57:50.188Z,9.70
2018-11-03T11:00:24.495Z,9.20
2018-11-03T11:02:58.160Z,8.73
2018-11-03T11:05:33.033Z,8.00
2018-11-03T11:08:06.532Z,7.60
2018-11-03T11:10:40.051Z,7.23
2018-11-03T11:13:28.233Z,7.53
2018-11-03T11:15:58.053Z,7.17
2018-11-03T11:18:26.236Z,7.20
2018-11-03T11:20:54.427Z,7.67
2018-11-03T11:23:23.050Z,8.13
2018-11-03T11:25:52.108Z,6.77
2018-11-03T11:28:21.976Z,7.10
2018-11-03T11:48:19.628Z,5.33
2018-11-03T11:50:47.870Z,5.13
2018-11-03T11:53:16.464Z,5.37
2018-11-03T11:55:51.970Z,5.40
2018-11-03T11:58:33.817Z,5.70
2018-11-03T12:01:04.709Z,5.67
2018-11-03T12:03:33.388Z,5.43
2018-11-03T12:06:01.921Z,5.30
2018-11-03T12:08:31.072Z,5.60
2018-11-03T12:10:59.684Z,5.57
2018-11-03T12:13:30.131Z,5.20
2018-11-03T12:16:02.033Z,5.53
2018-11-03T12:18:30.715Z,5.23
2018-11-03T12:20:59.143Z,5.00
2018-11-03T12:24:02.108Z,5.00
2018-11-03T12:26:43.099Z,4.80
2018-11-03T12:29:13.133Z,5.50
2018-11-03T12:34:30.012Z,5.10
2018-11-03T12:37:08.714Z,4.90
2018-11-03T12:39:37.720Z,5.07
2018-11-03T12:42:06.006Z,5.30
2018-11-03T12:44:34.748Z,5.27
2018-11-03T12:47:03.213Z,5.80
2018-11-03T12:49:43.896Z,5.63
2018-11-03T12:52:12.148Z,5.57
2018-11-03T12:54:41.409Z,5.30
2018-11-03T12:57:09.521Z,6.00
2018-11-03T12:59:37.599Z,5.77
2018-11-03T13:02:06.290Z,5.20
2018-11-03T13:04:34.496Z,5.77
2018-11-03T13:07:02.773Z,5.37
2018-11-03T13:09:30.949Z,6.40
2018-11-03T13:11:59.141Z,5.60
2018-11-03T13:14:27.328Z,6.53
2018-11-03T13:16:55.421Z,5.33
2018-11-03T13:19:23.523Z,5.83
2018-11-03T13:21:51.744Z,6.60
2018-11-03T13:24:20.276Z,6.67
2018-11-03T13:26:48.600Z,6.53
2018-11-03T13:29:16.945Z,6.50
2018-11-03T13:31:45.166Z,6.33
2018-11-03T13:34:13.453Z,6.97
2018-11-03T13:36:41.757Z,6.80
2018-11-03T13:39:10.832Z,6.20
2018-11-03T13:41:39.110Z,6.97
2018-11-03T13:44:09.294Z,6.97
2018-11-03T13:46:37.604Z,7.07
2018-11-03T13:49:05.762Z,7.07
2018-11-03T13:51:34.341Z,7.37
2018-11-03T13:54:03.273Z,6.73
2018-11-03T13:59:18.114Z,6.90
2018-11-03T14:01:48.175Z,6.80
2018-11-03T14:04:17.020Z,7.13
2018-11-03T14:06:46.967Z,6.77
2018-11-03T14:09:15.449Z,7.53
2018-11-03T14:11:44.076Z,7.13
2018-11-03T14:14:12.502Z,7.17
2018-11-03T14:16:41.283Z,6.27
2018-11-03T14:19:09.973Z,6.37
2018-11-03T14:21:38.371Z,6.90
2018-11-03T14:24:06.779Z,7.30
2018-11-03T14:26:38.967Z,6.20
2018-11-03T14:29:07.346Z,6.70
2018-11-03T14:31:35.945Z,6.90
2018-11-03T14:34:04.329Z,8.80
2018-11-03T14:36:33.833Z,8.80
2018-11-03T14:39:02.372Z,9.90
2018-11-03T14:41:38.195Z,10.33
2018-11-03T14:44:07.350Z,10.53
2018-11-03T14:46:35.735Z,11.67
2018-11-03T14:49:05.465Z,11.53
2018-11-03T14:51:33.947Z,11.37
2018-11-03T14:54:03.221Z,11.47
2018-11-03T14:56:31.764Z,11.40
2018-11-03T14:59:05.307Z,11.20
2018-11-03T15:01:33.582Z,11.77
2018-11-03T15:04:02.426Z,10.93
2018-11-03T15:06:31.212Z,11.57
2018-11-03T15:08:59.643Z,12.10
2018-11-03T15:11:30.651Z,11.80
2018-11-03T15:13:59.124Z,12.10
2018-11-03T15:16:26.960Z,11.27
2018-11-03T15:18:55.118Z,11.87
2018-11-03T15:21:23.191Z,12.13
2018-11-03T15:23:51.559Z,11.83
2018-11-03T15:26:20.242Z,12.50
2018-11-03T15:28:48.404Z,11.47
2018-11-03T15:31:16.596Z,12.17
2018-11-03T15:33:46.128Z,11.27
2018-11-03T15:36:14.335Z,10.83
2018-11-03T15:38:42.576Z,11.97
2018-11-03T15:41:10.813Z,11.17
2018-11-03T15:43:39.137Z,11.50
2018-11-03T15:46:07.495Z,11.90
2018-11-03T15:48:35.746Z,10.83
2018-11-03T15:51:04.086Z,11.87
2018-11-03T15:53:32.437Z,11.60
2018-11-03T15:56:00.724Z,12.70
2018-11-03T15:58:28.795Z,11.87
2018-11-03T16:00:57.062Z,11.53
2018-11-03T16:03:25.207Z,12.43
2018-11-03T16:05:53.400Z,12.33
2018-11-03T16:08:21.563Z,11.63
2018-11-03T16:10:50.726Z,12.40
2018-11-03T16:13:22.264Z,12.27
2018-11-03T16:15:50.826Z,12.97
2018-11-03T16:18:19.371Z,12.93
2018-11-03T16:20:47.521Z,13.80
2018-11-03T16:23:15.825Z,12.93
2018-11-03T16:25:44.017Z,13.80
2018-11-03T16:28:12.260Z,14.13
2018-11-03T16:30:41.628Z,13.77
2018-11-03T16:33:10.210Z,14.47
2018-11-03T16:35:40.046Z,15.17
2018-11-03T16:38:08.292Z,14.93
2018-11-03T16:40:36.908Z,15.03
2018-11-03T16:43:05.537Z,15.23
2018-11-03T16:45:34.571Z,15.10
2018-11-03T16:48:04.490Z,15.00
2018-11-03T16:50:32.644Z,15.60
2018-11-03T16:53:10.430Z,16.03
2018-11-03T16:55:38.608Z,16.93
2018-11-03T16:58:06.676Z,15.67
2018-11-03T17:00:39.819Z,15.87
2018-11-03T17:03:08.903Z,15.53
2018-11-03T17:05:37.065Z,15.40
2018-11-03T17:08:05.133Z,16.50
2018-11-03T17:10:33.314Z,15.93
2018-11-03T17:13:01.449Z,16.50
2018-11-03T17:15:29.626Z,15.73
2018-11-03T17:17:58.046Z,16.20
2018-11-03T17:20:26.153Z,16.63
2018-11-03T17:22:54.237Z,16.77
2018-11-03T17:25:23.176Z,16.63
2018-11-03T17:27:52.068Z,15.93
2018-11-03T17:30:20.478Z,16.83
2018-11-03T17:32:48.778Z,16.90
2018-11-03T17:35:16.996Z,16.83
2018-11-03T17:37:45.599Z,16.77
2018-11-03T17:40:14.278Z,17.13
2018-11-03T17:42:42.702Z,17.10
2018-11-03T17:45:11.747Z,17.60
2018-11-03T17:47:39.973Z,15.97
2018-11-03T17:50:08.809Z,16.63
2018-11-03T17:52:37.015Z,16.43
2018-11-03T17:55:05.983Z,17.47
2018-11-03T17:57:34.309Z,17.30
2018-11-03T18:00:03.850Z,17.10
2018-11-03T18:02:32.082Z,16.97
2018-11-03T18:05:00.388Z,17.03
2018-11-03T18:07:28.596Z,18.30
2018-11-03T18:09:56.758Z,17.37
2018-11-03T18:12:25.145Z,17.77
2018-11-03T18:14:53.648Z,17.07
2018-11-03T18:17:22.804Z,17.27
2018-11-03T18:19:51.090Z,17.57
2018-11-03T18:22:21.153Z,18.60
2018-11-03T18:24:51.196Z,16.97
2018-11-03T18:27:19.317Z,17.63
2018-11-03T18:29:47.472Z,17.07
2018-11-03T18:32:15.665Z,17.07
2018-11-03T18:34:44.329Z,17.70
2018-11-03T18:37:13.403Z,17.17
2018-11-03T18:39:41.973Z,17.27
2018-11-03T18:42:10.808Z,16.43
2018-11-03T18:44:39.843Z,16.73
2018-11-03T18:47:15.410Z,16.67
2018-11-03T18:49:44.844Z,16.10
2018-11-03T18:52:18.060Z,16.00
2018-11-03T18:57:49.364Z,16.10
2018-11-03T19:00:21.633Z,16.47
2018-11-03T19:02:52.470Z,17.30
2018-11-03T19:05:21.619Z,16.70
2018-11-03T19:08:01.355Z,17.03
2018-11-03T19:10:34.055Z,15.67
2018-11-03T19:13:06.780Z,17.40
2018-11-03T19:15:36.157Z,17.33
2018-11-03T19:18:14.835Z,16.93
2018-11-03T19:23:46.249Z,17.97
2018-11-03T19:26:14.480Z,18.00
2018-11-03T19:28:43.080Z,17.10
2018-11-03T19:31:12.101Z,18.10
2018-11-03T19:33:40.504Z,16.73
2018-11-03T19:36:08.965Z,18.00
2018-11-03T19:38:38.949Z,18.30
2018-11-03T19:41:07.489Z,18.40
2018-11-03T19:43:39.658Z,18.97
2018-11-03T19:46:08.667Z,18.27
2018-11-03T19:48:38.637Z,18.80
2018-11-03T19:51:07.129Z,18.60
2018-11-03T19:53:35.366Z,19.97
2018-11-03T19:56:03.704Z,18.13
2018-11-03T19:58:32.026Z,19.30
2018-11-03T20:01:00.227Z,19.00
2018-11-03T20:03:28.462Z,17.73
2018-11-03T20:05:56.550Z,18.70
2018-11-03T20:08:26.840Z,20.57
2018-11-03T20:10:56.089Z,21.03
2018-11-03T20:13:24.728Z,22.13
2018-11-03T20:15:53.137Z,23.70
2018-11-03T20:18:21.555Z,24.23
2018-11-03T20:20:50.119Z,23.80
2018-11-03T20:23:19.463Z,24.80
2018-11-03T20:25:47.678Z,22.37
2018-11-03T20:28:15.945Z,23.20
2018-11-03T20:30:44.163Z,23.10
2018-11-03T20:33:12.537Z,21.80
2018-11-03T20:35:40.626Z,23.47
2018-11-03T20:38:08.841Z,23.53
2018-11-03T20:40:37.051Z,24.37
2018-11-03T20:43:05.254Z,24.43
2018-11-03T20:45:33.677Z,24.30
2018-11-03T20:48:01.874Z,23.80
2018-11-03T20:50:30.067Z,24.80
2018-11-03T20:52:59.200Z,24.37
2018-11-03T20:55:27.389Z,24.53
2018-11-03T20:57:55.627Z,23.17
2018-11-03T21:00:23.822Z,22.90
2018-11-03T21:02:52.249Z,21.47
2018-11-03T21:05:20.391Z,20.70
2018-11-03T21:07:48.597Z,20.90
2018-11-03T21:10:16.790Z,20.13
2018-11-03T21:12:45.010Z,20.53
2018-11-03T21:15:13.429Z,19.50
2018-11-03T21:17:44.207Z,20.80
2018-11-03T21:20:12.532Z,20.63
2018-11-03T21:22:41.203Z,21.07
2018-11-03T21:25:10.874Z,21.03
2018-11-03T21:27:41.549Z,19.43
2018-11-03T21:30:10.267Z,19.27
2018-11-03T21:32:38.948Z,18.97
2018-11-03T21:35:08.515Z,19.80
2018-11-03T21:37:37.368Z,18.53
2018-11-03T21:40:05.927Z,19.60
2018-11-03T21:42:34.171Z,19.63
2018-11-03T21:45:02.520Z,19.33
2018-11-03T21:47:31.186Z,20.20
2018-11-03T21:49:59.548Z,18.83
2018-11-03T21:52:28.835Z,19.20
2018-11-03T21:54:57.165Z,20.77
2018-11-03T21:57:25.708Z,20.43
2018-11-03T21:59:53.982Z,19.90
2018-11-03T22:02:22.387Z,19.60
2018-11-03T22:04:50.620Z,20.57
2018-11-03T22:07:19.154Z,21.50
2018-11-03T22:09:47.737Z,19.70
2018-11-03T22:12:16.075Z,20.20
2018-11-03T22:14:44.356Z,19.97
